createdAt,value
2022-11-04T00:00:28.646Z,100064.01
2022-11-04T00:03:00.397Z,100061.33
2022-11-04T00:05:28.915Z,100061.05
2022-11-04T00:08:15.664Z,100059.02
2022-11-04T00:11:02.983Z,100057.48
2022-11-04T00:13:31.222Z,100054.71
2022-11-04T00:16:21.630Z,100055.70
2022-11-04T00:18:50.821Z,100054.48
2022-11-04T00:21:38.386Z,100051.23
2022-11-04T00:24:27.303Z,100053.91
2022-11-04T00:27:14.928Z,100053.54
2022-11-04T00:29:43.618Z,100055.41
2022-11-04T00:32:31.246Z,100053.47
2022-11-04T00:34:59.685Z,100052.61
2022-11-04T00:37:28.315Z,100046.88
2022-11-04T00:39:56.687Z,100041.64
2022-11-04T00:42:24.962Z,100035.06
2022-11-04T00:44:53.547Z,100035.00
2022-11-04T00:47:21.996Z,100029.11
2022-11-04T00:49:50.610Z,100025.63
2022-11-04T00:52:19.604Z,100025.79
2022-11-04T00:54:48.287Z,100025.95
2022-11-04T00:57:16.798Z,100022.79
2022-11-04T00:59:45.895Z,100014.96
2022-11-04T01:02:14.468Z,100012.63
2022-11-04T01:04:42.731Z,100009.17
2022-11-04T01:07:11.100Z,100004.14
2022-11-04T01:09:39.481Z,99999.90
2022-11-04T01:12:07.962Z,99997.43
2022-11-04T01:14:36.338Z,99994.36
2022-11-04T01:17:04.900Z,99986.55
2022-11-04T01:19:33.405Z,99983.25
2022-11-04T01:22:01.696Z,99974.36
2022-11-04T01:24:30.058Z,99967.00
2022-11-04T01:26:58.642Z,99963.11
2022-11-04T01:29:27.047Z,99965.20
2022-11-04T01:31:55.294Z,99965.30
2022-11-04T01:34:23.710Z,99966.77
2022-11-04T01:36:52.248Z,99962.48
2022-11-04T01:39:20.414Z,99960.92
2022-11-04T01:41:48.603Z,99958.76
2022-11-04T01:44:42.117Z,99955.13
2022-11-04T01:47:16.796Z,99952.48
2022-11-04T01:49:49.351Z,99947.77
2022-11-04T01:52:27.478Z,99945.34
2022-11-04T01:54:59.850Z,99938.74
2022-11-04T01:57:40.824Z,99933.63
2022-11-04T02:00:10.541Z,99929.61
2022-11-04T02:03:01.950Z,99924.72
2022-11-04T02:05:31.150Z,99924.70
2022-11-04T02:08:03.047Z,99916.02
2022-11-04T02:10:32.923Z,99918.02
2022-11-04T02:13:05.896Z,99912.07
2022-11-04T02:16:12.486Z,99907.04
2022-11-04T02:19:18.648Z,99903.13
2022-11-04T02:22:26.324Z,99897.27
2022-11-04T02:25:08.665Z,99893.80
2022-11-04T02:28:05.605Z,99887.27
2022-11-04T02:30:42.353Z,99883.36
2022-11-04T02:33:30.928Z,99878.85
2022-11-04T02:36:06.181Z,99876.11
2022-11-04T02:38:49.904Z,99868.61
2022-11-04T02:41:27.152Z,99871.22
2022-11-04T02:44:16.855Z,99872.53
2022-11-04T02:46:57.429Z,99867.37
2022-11-04T02:49:48.033Z,99863.05
2022-11-04T02:52:23.836Z,99862.38
2022-11-04T02:55:00.869Z,99861.16
2022-11-04T02:57:36.322Z,99855.65
2022-11-04T03:00:06.429Z,99852.86
2022-11-04T03:02:40.704Z,99845.74
2022-11-04T03:05:16.404Z,99847.43
2022-11-04T03:07:47.997Z,99849.78
2022-11-04T03:10:21.141Z,99845.61
2022-11-04T03:13:02.369Z,99846.15
2022-11-04T03:15:36.430Z,99842.83
2022-11-04T03:18:28.261Z,99840.15
2022-11-04T03:21:00.633Z,99838.60
2022-11-04T03:23:29.719Z,99836.54
2022-11-04T03:26:09.067Z,99832.24
2022-11-04T03:29:03.347Z,99830.48
2022-11-04T03:31:49.952Z,99830.31
2022-11-04T03:34:18.559Z,99826.50
2022-11-04T03:36:46.887Z,99823.86
2022-11-04T03:39:15.496Z,99823.27
2022-11-04T03:41:57.192Z,99819.88
2022-11-04T03:44:26.283Z,99817.03
2022-11-04T03:46:54.973Z,99811.58
2022-11-04T03:49:24.878Z,99807.90
2022-11-04T03:51:53.673Z,99804.17
2022-11-04T03:54:22.464Z,99798.20
2022-11-04T03:57:01.911Z,99797.80
2022-11-04T03:59:45.660Z,99794.45
2022-11-04T04:02:19.633Z,99793.05
2022-11-04T04:05:01.369Z,99789.96
2022-11-04T15:06:54.740Z,99638.49
2022-11-04T15:09:26.880Z,99644.96
2022-11-04T15:12:46.557Z,99647.08
2022-11-04T15:15:31.973Z,99651.21
2022-11-04T15:18:15.473Z,99647.83
2022-11-04T15:20:56.851Z,99644.86
2022-11-04T15:23:31.697Z,99642.77
2022-11-04T15:26:02.408Z,99648.73
2022-11-04T15:28:35.224Z,99656.90
2022-11-04T15:31:16.925Z,99658.02
2022-11-04T15:33:51.097Z,99657.43
2022-11-04T15:36:24.483Z,99656.41
2022-11-04T15:38:58.162Z,99655.60
2022-11-04T15:41:47.568Z,99656.40
2022-11-04T15:44:23.693Z,99657.02
2022-11-04T15:46:54.668Z,99657.29
2022-11-04T15:49:28.432Z,99658.55
2022-11-04T15:52:00.804Z,99659.14
2022-11-04T15:54:33.627Z,99657.17
2022-11-04T15:57:31.959Z,99657.70
2022-11-04T16:00:07.154Z,99654.50
2022-11-04T16:02:48.222Z,99654.05
2022-11-04T16:05:16.499Z,99650.73
2022-11-04T16:07:47.291Z,99647.61
2022-11-04T16:10:30.474Z,99651.27
2022-11-04T16:13:01.541Z,99653.20
2022-11-04T16:15:31.093Z,99648.16
2022-11-04T16:17:59.697Z,99646.45
2022-11-04T16:20:28.257Z,99643.69
2022-11-04T16:23:00.263Z,99646.34
2022-11-04T16:25:35.412Z,99648.52
2022-11-04T16:28:04.157Z,99651.27
2022-11-04T16:30:32.500Z,99648.71
2022-11-04T16:33:17.863Z,99646.30
2022-11-04T16:35:45.996Z,99639.61
2022-11-04T16:38:14.298Z,99642.16
2022-11-04T16:40:45.856Z,99642.63
2022-11-04T16:43:18.849Z,99647.01
2022-11-04T16:45:53.838Z,99646.34
2022-11-04T16:48:24.782Z,99651.65
2022-11-04T16:50:53.149Z,99647.27
2022-11-04T16:53:21.428Z,99646.73
2022-11-04T16:55:57.942Z,99650.56
2022-11-04T16:58:26.168Z,99646.29
2022-11-04T17:00:54.819Z,99647.89
2022-11-04T17:03:23.235Z,99648.44
2022-11-04T17:05:56.391Z,99643.61
2022-11-04T17:08:26.313Z,99646.06
2022-11-04T17:10:54.672Z,99646.16
2022-11-04T17:13:22.940Z,99649.41
2022-11-04T17:15:51.291Z,99653.72
2022-11-04T17:18:19.752Z,99654.81
2022-11-04T17:20:54.490Z,99656.77
2022-11-04T17:23:23.677Z,99657.52
2022-11-04T17:25:52.883Z,99658.62
2022-11-04T17:28:21.253Z,99656.51
2022-11-04T17:30:49.615Z,99651.80
2022-11-04T17:33:19.441Z,99655.16
2022-11-04T17:35:50.534Z,99658.82
2022-11-04T17:38:19.508Z,99662.20
2022-11-04T17:41:11.095Z,99663.81
2022-11-04T17:43:58.634Z,99668.05
2022-11-04T17:46:34.467Z,99666.95
2022-11-04T17:49:13.198Z,99663.35
2022-11-04T17:51:43.817Z,99667.09
2022-11-04T17:54:12.835Z,99662.87
2022-11-04T17:56:42.227Z,99667.41
2022-11-04T17:59:12.388Z,99667.78
2022-11-04T18:01:42.870Z,99666.59
2022-11-04T18:04:16.877Z,99667.60
2022-11-04T18:06:45.775Z,99660.27
2022-11-04T18:09:15.844Z,99660.59
2022-11-04T18:12:04.651Z,99657.15
2022-11-04T18:14:33.274Z,99656.63
2022-11-04T18:17:02.121Z,99652.03
2022-11-04T18:19:30.808Z,99649.88
2022-11-04T18:21:59.287Z,99644.73
2022-11-04T18:24:27.903Z,99645.67
2022-11-04T18:26:57.703Z,99644.29
2022-11-04T18:29:25.969Z,99647.20
2022-11-04T18:31:54.338Z,99651.43
2022-11-04T18:34:23.022Z,99650.28
2022-11-04T18:36:51.364Z,99646.88
2022-11-04T18:39:19.791Z,99648.61
2022-11-04T18:41:48.465Z,99648.41
2022-11-04T18:44:19.717Z,99649.52
2022-11-04T18:46:49.213Z,99650.99
2022-11-04T18:49:18.314Z,99648.15
2022-11-04T18:51:47.136Z,99648.10
2022-11-04T18:54:15.580Z,99648.46
2022-11-04T18:56:44.265Z,99648.62
2022-11-04T18:59:14.726Z,99646.67
2022-11-04T19:01:43.840Z,99647.23
2022-11-04T19:04:13.214Z,99643.91
2022-11-04T19:06:44.025Z,99643.35
2022-11-04T19:12:22.037Z,99638.98
2022-11-04T19:14:50.473Z,99639.71
2022-11-04T19:17:18.908Z,99635.86
2022-11-04T19:19:47.591Z,99629.84
2022-11-04T19:22:15.937Z,99633.34
2022-11-04T19:24:44.247Z,99637.45
2022-11-04T19:27:12.537Z,99643.67
2022-11-04T19:29:40.949Z,99635.68
2022-11-04T19:32:13.766Z,99632.94
2022-11-04T19:34:43.596Z,99632.13
2022-11-04T19:37:12.969Z,99630.33
2022-11-04T19:39:41.279Z,99630.34
2022-11-04T19:42:30.876Z,99631.89
2022-11-04T19:44:59.335Z,99634.00
2022-11-04T19:47:27.742Z,99635.05
2022-11-04T19:49:56.191Z,99633.89
2022-11-04T19:52:24.506Z,99630.27
2022-11-04T19:54:52.993Z,99635.90
2022-11-04T19:57:21.568Z,99638.67
2022-11-04T19:59:52.575Z,99636.27
2022-11-04T20:02:21.858Z,99641.02
2022-11-04T20:04:50.256Z,99643.30
2022-11-04T20:07:18.832Z,99638.33
2022-11-04T20:09:47.416Z,99640.84
2022-11-04T20:12:34.377Z,99641.08
2022-11-04T20:15:03.429Z,99642.17
2022-11-04T20:17:33.071Z,99643.14
2022-11-04T20:20:01.436Z,99642.20
2022-11-04T20:22:29.784Z,99640.92
2022-11-04T20:24:58.042Z,99642.83
2022-11-04T20:27:26.543Z,99643.70
2022-11-04T20:29:55.023Z,99641.89
2022-11-04T20:32:23.402Z,99642.59
2022-11-04T20:34:51.776Z,99645.73
2022-11-04T20:37:20.670Z,99644.13
2022-11-04T20:39:49.043Z,99646.49
2022-11-04T20:42:17.418Z,99644.77
2022-11-04T20:44:46.014Z,99645.36
2022-11-04T20:47:16.012Z,99641.71
2022-11-04T20:49:45.064Z,99644.88
2022-11-04T20:52:13.706Z,99647.79
2022-11-04T20:54:42.364Z,99646.91
2022-11-04T20:57:10.654Z,99645.83
2022-11-04T20:59:38.985Z,99643.15
2022-11-04T21:02:10.712Z,99638.76
2022-11-04T21:04:39.284Z,99637.52
2022-11-04T21:07:07.818Z,99639.61
2022-11-04T21:09:36.162Z,99642.98
2022-11-04T21:12:05.151Z,99642.98
2022-11-04T21:14:35.256Z,99642.90
2022-11-04T21:17:05.677Z,99649.92
2022-11-04T21:19:34.366Z,99648.77
2022-11-04T21:22:02.645Z,99648.06
2022-11-04T21:24:37.889Z,99650.30
2022-11-04T21:27:07.797Z,99652.64
2022-11-04T21:29:36.630Z,99658.20
2022-11-04T21:32:05.579Z,99661.52
2022-11-04T21:34:34.058Z,99657.42
2022-11-04T21:37:02.308Z,99655.94
2022-11-04T21:39:30.538Z,99654.73
2022-11-04T21:41:59.329Z,99645.45
2022-11-04T21:44:27.877Z,99645.08
2022-11-04T21:46:56.257Z,99645.77
2022-11-04T21:49:24.838Z,99640.51
2022-11-04T21:51:53.017Z,99634.77
2022-11-04T21:54:21.248Z,99631.55
2022-11-04T21:56:50.793Z,99632.08
2022-11-04T21:59:19.379Z,99632.32
2022-11-04T22:01:47.991Z,99632.48
2022-11-04T22:04:16.647Z,99627.13
2022-11-04T22:06:45.640Z,99631.55
2022-11-04T22:09:14.028Z,99630.52
2022-11-04T22:11:42.633Z,99634.67
2022-11-04T22:14:12.358Z,99637.87
2022-11-04T22:16:40.789Z,99632.89
2022-11-04T22:19:10.980Z,99630.23
2022-11-04T22:21:41.521Z,99625.33
2022-11-04T22:24:16.198Z,99627.80
2022-11-04T22:26:45.055Z,99623.67
2022-11-04T22:29:13.342Z,99621.38
2022-11-04T22:31:42.808Z,99619.96
2022-11-04T22:34:11.319Z,99618.75
2022-11-04T22:36:40.002Z,99617.41
2022-11-04T22:39:15.242Z,99619.22
2022-11-04T22:41:46.637Z,99622.12
2022-11-04T22:44:15.328Z,99625.08
2022-11-04T22:46:43.819Z,99625.31
2022-11-04T22:49:14.638Z,99626.56
2022-11-04T22:51:43.237Z,99624.38
2022-11-04T22:54:11.661Z,99624.80
2022-11-04T22:56:40.263Z,99616.73
2022-11-04T22:59:08.480Z,99610.95
2022-11-04T23:01:37.280Z,99607.64
2022-11-04T23:04:06.693Z,99605.54
2022-11-04T23:06:34.979Z,99606.29
2022-11-04T23:09:03.664Z,99601.23
2022-11-04T23:11:51.806Z,99603.05
2022-11-04T23:14:40.766Z,99600.73
2022-11-04T23:17:34.033Z,99601.04
2022-11-04T23:20:06.274Z,99600.75
2022-11-04T23:22:53.210Z,99602.52
2022-11-04T23:25:22.065Z,99602.86
2022-11-04T23:28:11.568Z,99600.69
2022-11-04T23:30:45.856Z,99602.95
2022-11-04T23:33:15.493Z,99600.94
2022-11-04T23:36:07.919Z,99600.84
2022-11-04T23:38:36.421Z,99603.05
2022-11-04T23:41:25.186Z,99601.58
2022-11-04T23:43:53.760Z,99605.04
2022-11-04T23:46:43.428Z,99607.19
2022-11-04T23:49:30.997Z,99612.05
2022-11-04T23:52:18.112Z,99611.66
2022-11-04T23:55:05.210Z,99609.15
2022-11-04T23:57:52.831Z,99610.43
